Time;durP1;ratioP1;P1;durP2;ratioP2;P2;SDS_P1;SDS_P2;PMS_P1;PMS_P2;Temp;Humidity;BMP_temperature;BMP_pressure;BME280_temperature;BME280_humidity;BME280_pressure;Samples;Min_cycle;Max_cycle;Signal;HPM_P1;HPM_P2
2023/01/21 00:01:48;;;;;;;60.50;29.48;;;;;;;-1.84;100.00;102352.50;5246990;28;20024;-64
2023/01/21 00:04:19;;;;;;;58.83;29.95;;;;;;;-1.80;100.00;102351.59;5242723;28;20028;-64
2023/01/21 00:06:50;;;;;;;60.75;29.77;;;;;;;-1.83;100.00;102354.22;5247701;28;20035;-64
2023/01/21 00:09:21;;;;;;;59.88;29.55;;;;;;;-1.86;100.00;102358.56;5253524;28;20642;-63
2023/01/21 00:11:53;;;;;;;56.60;28.42;;;;;;;-1.84;100.00;102365.56;5244013;28;20379;-63
2023/01/21 00:14:24;;;;;;;59.78;29.70;;;;;;;-1.88;100.00;102370.78;5243958;28;20770;-63
2023/01/21 00:16:57;;;;;;;60.10;29.13;;;;;;;-1.89;100.00;102371.69;5247740;28;20458;-63
2023/01/21 00:19:28;;;;;;;60.58;29.55;;;;;;;-1.89;100.00;102380.38;5242641;28;20114;-63
2023/01/21 00:21:59;;;;;;;59.55;28.65;;;;;;;-1.90;100.00;102378.63;5245352;28;20128;-63
2023/01/21 00:24:31;;;;;;;57.67;29.45;;;;;;;-1.94;100.00;102374.28;5245319;28;20036;-63
2023/01/21 00:27:02;;;;;;;58.20;28.77;;;;;;;-1.92;100.00;102383.00;5247673;28;20455;-63
2023/01/21 00:29:33;;;;;;;61.67;30.73;;;;;;;-1.94;100.00;102389.97;5247009;28;20452;-63
2023/01/21 00:32:05;;;;;;;61.00;29.92;;;;;;;-1.92;100.00;102385.59;5246606;28;20155;-63
2023/01/21 00:34:36;;;;;;;58.55;29.65;;;;;;;-1.96;100.00;102386.47;5247799;28;20397;-63
2023/01/21 00:37:07;;;;;;;61.72;30.05;;;;;;;-1.94;100.00;102389.97;5248625;28;20028;-63
2023/01/21 00:39:41;;;;;;;66.78;29.85;;;;;;;-2.01;100.00;102402.19;5246128;28;20471;-63
2023/01/21 00:42:13;;;;;;;74.65;31.40;;;;;;;-2.02;100.00;102397.81;5246248;28;20091;-63
2023/01/21 00:44:44;;;;;;;64.80;30.90;;;;;;;-2.03;100.00;102392.59;5246651;28;20418;-63
2023/01/21 00:47:15;;;;;;;63.00;31.05;;;;;;;-2.04;100.00;102398.69;5244680;28;20041;-63
2023/01/21 00:49:46;;;;;;;62.78;30.00;;;;;;;-2.08;100.00;102403.03;5246122;28;20067;-63
2023/01/21 00:52:18;;;;;;;61.22;29.40;;;;;;;-2.08;100.00;102412.63;5245818;28;20115;-62
2023/01/21 00:54:49;;;;;;;67.75;29.45;;;;;;;-2.08;100.00;102410.03;5242832;28;20033;-63
2023/01/21 00:57:20;;;;;;;64.65;32.10;;;;;;;-2.11;100.00;102423.97;5247246;28;20404;-63
2023/01/21 00:59:52;;;;;;;61.92;30.90;;;;;;;-2.12;100.00;102423.97;5248182;28;20123;-62
2023/01/21 01:02:23;;;;;;;64.97;31.35;;;;;;;-2.03;100.00;102434.44;5245946;28;20036;-63
2023/01/21 01:04:54;;;;;;;62.83;30.02;;;;;;;-2.13;100.00;102433.53;5243527;28;20513;-62
2023/01/21 01:07:26;;;;;;;60.75;29.27;;;;;;;-2.17;100.00;102437.91;5247386;28;20083;-63
2023/01/21 01:09:57;;;;;;;60.78;29.02;;;;;;;-2.14;100.00;102450.09;5244159;28;20033;-63
2023/01/21 01:12:28;;;;;;;63.95;31.08;;;;;;;-2.15;100.00;102450.09;5245913;28;20032;-62
2023/01/21 01:15:00;;;;;;;68.68;32.83;;;;;;;-2.07;100.00;102456.19;5242831;28;20457;-63
2023/01/21 01:17:31;;;;;;;72.10;32.53;;;;;;;-2.19;100.00;102455.34;5244724;28;20082;-63
2023/01/21 01:20:03;;;;;;;67.07;32.22;;;;;;;-2.21;100.00;102467.50;5247297;28;20044;-63
2023/01/21 01:22:34;;;;;;;63.30;32.13;;;;;;;-2.23;100.00;102474.47;5243372;28;20051;-64
2023/01/21 01:25:06;;;;;;;65.88;31.67;;;;;;;-2.24;100.00;102482.34;5260754;28;21132;-63
2023/01/21 01:27:37;;;;;;;69.65;33.03;;;;;;;-2.26;100.00;102484.03;5247622;28;20025;-63
2023/01/21 01:30:09;;;;;;;65.63;32.58;;;;;;;-2.25;100.00;102491.91;5248134;28;20060;-63
2023/01/21 01:32:40;;;;;;;68.15;33.50;;;;;;;-2.27;100.00;102495.38;5246233;28;20052;-62
2023/01/21 01:35:11;;;;;;;65.88;33.22;;;;;;;-2.25;100.00;102504.09;5248393;28;20427;-62
2023/01/21 01:37:42;;;;;;;72.97;34.05;;;;;;;-2.30;100.00;102496.25;5245855;28;20037;-62
2023/01/21 01:40:14;;;;;;;67.00;32.47;;;;;;;-2.29;100.00;102507.56;5247548;28;20033;-62
2023/01/21 01:42:45;;;;;;;71.70;33.20;;;;;;;-2.31;100.00;102520.63;5243491;28;20111;-63
2023/01/21 01:45:19;;;;;;;70.28;33.33;;;;;;;-2.29;100.00;102515.41;5245614;28;20118;-64
2023/01/21 01:47:58;;;;;;;76.70;34.97;;;;;;;-2.31;100.00;102527.63;5245727;28;20032;-62
2023/01/21 01:50:34;;;;;;;73.35;34.83;;;;;;;-2.34;100.00;102518.00;5247365;28;20033;-63
2023/01/21 01:53:07;;;;;;;74.47;35.33;;;;;;;-2.33;100.00;102525.00;5245890;28;20045;-63
2023/01/21 01:55:38;;;;;;;75.78;35.10;;;;;;;-2.34;100.00;102525.84;5245407;28;20061;-63
2023/01/21 01:58:13;;;;;;;75.20;34.88;;;;;;;-2.38;100.00;102530.22;5246618;28;20174;-63
2023/01/21 02:00:45;;;;;;;77.10;36.78;;;;;;;-2.38;100.00;102529.31;5245567;28;20028;-63
2023/01/21 02:06:07;;;;;;;80.20;37.50;;;;;;;-2.39;100.00;102530.19;5249138;28;20491;-63
2023/01/21 02:08:39;;;;;;;81.38;36.58;;;;;;;-2.40;100.00;102536.28;5250730;28;20108;-63
2023/01/21 02:11:18;;;;;;;82.15;37.17;;;;;;;-2.40;100.00;102537.16;5251948;28;20048;-63
2023/01/21 02:13:53;;;;;;;79.70;36.75;;;;;;;-2.38;100.00;102542.38;5249980;28;20744;-63
2023/01/21 02:16:46;;;;;;;80.72;37.63;;;;;;;-2.41;100.00;102543.25;5251127;28;20036;-63
2023/01/21 02:19:42;;;;;;;78.18;37.97;;;;;;;-2.43;100.00;102551.97;5249165;28;20067;-63
2023/01/21 02:22:45;;;;;;;77.85;37.78;;;;;;;-2.46;100.00;102555.41;5250041;28;20056;-63
2023/01/21 02:25:25;;;;;;;83.07;39.63;;;;;;;-2.47;100.00;102561.53;5235862;28;20584;-63
2023/01/21 02:28:31;;;;;;;85.95;39.90;;;;;;;-2.45;100.00;102572.84;5251969;28;20040;-63
2023/01/21 02:31:17;;;;;;;83.70;39.63;;;;;;;-2.46;100.00;102563.25;5249183;28;20644;-63
2023/01/21 02:34:12;;;;;;;92.00;40.53;;;;;;;-2.44;100.00;102568.50;5246177;28;20037;-63
2023/01/21 02:37:02;;;;;;;;;;;;;;;-2.43;100.00;102567.66;5251447;28;20037;-63
2023/01/21 02:39:39;;;;;;;81.18;39.72;;;;;;;-2.50;100.00;102573.69;5249789;28;19951;-62
2023/01/21 02:42:21;;;;;;;89.40;41.78;;;;;;;-2.52;100.00;102568.44;5251042;28;20040;-62
2023/01/21 02:45:04;;;;;;;91.30;42.20;;;;;;;-2.52;100.00;102572.81;5247810;28;20822;-63
2023/01/21 02:48:04;;;;;;;94.68;44.30;;;;;;;-2.50;100.00;102578.91;5248922;28;20052;-63
2023/01/21 02:50:48;;;;;;;90.53;43.45;;;;;;;-2.54;100.00;102580.63;5248952;28;20130;-62
2023/01/21 02:53:31;;;;;;;94.28;44.33;;;;;;;-2.55;100.00;102589.34;5249010;28;20032;-62
2023/01/21 02:56:16;;;;;;;92.50;43.85;;;;;;;-2.59;100.00;102583.22;5249081;28;20960;-62
2023/01/21 02:58:53;;;;;;;91.72;42.70;;;;;;;-2.61;100.00;102594.53;5251284;28;20039;-63
2023/01/21 03:01:39;;;;;;;95.80;44.92;;;;;;;-2.61;100.00;102600.66;5248748;28;20028;-62
2023/01/21 03:04:13;;;;;;;93.82;45.45;;;;;;;-2.61;100.00;102605.88;5246428;28;20029;-63
2023/01/21 03:07:03;;;;;;;97.20;44.55;;;;;;;-2.62;100.00;102603.25;5249555;28;20025;-63
2023/01/21 03:09:35;;;;;;;96.90;44.42;;;;;;;-2.65;100.00;102609.28;5249409;28;20036;-63
2023/01/21 03:12:25;;;;;;;92.93;43.55;;;;;;;-2.64;100.00;102607.59;5251922;28;20106;-63
2023/01/21 03:18:15;;;;;;;88.28;43.35;;;;;;;-2.63;100.00;102612.81;5251676;28;20554;-63
2023/01/21 03:21:00;;;;;;;89.60;40.80;;;;;;;-2.63;100.00;102614.53;5249281;28;20045;-63
2023/01/21 03:23:36;;;;;;;96.57;43.13;;;;;;;-2.65;100.00;102618.88;5246977;28;20033;-63
2023/01/21 03:26:12;;;;;;;90.32;42.88;;;;;;;-2.62;100.00;102616.31;5248963;28;20406;-63
2023/01/21 03:28:48;;;;;;;94.28;42.05;;;;;;;-2.69;100.00;102615.38;5248432;28;20272;-63
2023/01/21 03:31:24;;;;;;;91.82;41.90;;;;;;;-2.70;100.00;102616.25;5249906;28;20074;-63
2023/01/21 03:33:59;;;;;;;90.88;42.15;;;;;;;-2.63;100.00;102619.78;5248000;28;20025;-63
2023/01/21 03:37:04;;;;;;;91.90;40.50;;;;;;;-2.68;100.00;102624.97;5248518;28;20053;-63
2023/01/21 03:39:44;;;;;;;88.00;40.50;;;;;;;-2.67;100.00;102629.31;5247968;28;20039;-63
2023/01/21 03:42:16;;;;;;;85.43;40.22;;;;;;;-2.69;100.00;102632.78;5247672;28;20052;-63
2023/01/21 03:44:48;;;;;;;85.50;39.60;;;;;;;-2.70;100.00;102637.16;5245278;28;20044;-63
2023/01/21 03:47:30;;;;;;;85.88;38.67;;;;;;;-2.76;100.00;102629.28;5248951;28;20020;-63
2023/01/21 03:50:12;;;;;;;81.35;38.78;;;;;;;-2.74;100.00;102640.59;5248514;28;20111;-63
2023/01/21 03:52:45;;;;;;;88.55;40.58;;;;;;;-2.76;100.00;102642.34;5254947;28;20615;-63
2023/01/21 03:55:16;;;;;;;84.93;38.23;;;;;;;-2.78;100.00;102644.94;5259589;28;20028;-63
2023/01/21 03:57:48;;;;;;;78.53;37.80;;;;;;;-2.78;100.00;102650.16;5248410;28;20048;-63
2023/01/21 04:00:19;;;;;;;82.90;37.03;;;;;;;-2.78;100.00;102660.59;5246977;28;20025;-63
2023/01/21 04:02:50;;;;;;;82.82;36.15;;;;;;;-2.76;100.00;102658.00;5251633;28;20029;-63
2023/01/21 04:05:22;;;;;;;83.80;37.55;;;;;;;-2.77;100.00;102656.25;5245151;28;20032;-63
2023/01/21 04:07:53;;;;;;;80.03;36.75;;;;;;;-2.77;100.00;102653.63;5246380;28;20039;-63
2023/01/21 04:10:24;;;;;;;79.63;36.05;;;;;;;-2.77;100.00;102661.47;5247800;28;20132;-63
2023/01/21 04:12:56;;;;;;;82.65;37.22;;;;;;;-2.77;100.00;102649.28;5250218;28;20033;-63
2023/01/21 04:15:27;;;;;;;79.35;35.60;;;;;;;-2.79;100.00;102651.00;5244684;28;20024;-63
2023/01/21 04:17:58;;;;;;;83.25;36.60;;;;;;;-2.82;100.00;102661.44;5247653;28;20095;-63
2023/01/21 04:20:29;;;;;;;84.13;35.38;;;;;;;-2.80;100.00;102669.28;5245961;28;20025;-63
2023/01/21 04:23:01;;;;;;;84.90;38.40;;;;;;;-2.81;100.00;102675.38;5251119;28;20053;-63
2023/01/21 04:25:32;;;;;;;79.40;35.10;;;;;;;-2.79;100.00;102671.91;5244452;28;20033;-63
2023/01/21 04:28:03;;;;;;;75.63;34.28;;;;;;;-2.81;100.00;102678.00;5246185;28;20033;-63
2023/01/21 04:30:35;;;;;;;76.75;34.30;;;;;;;-2.83;100.00;102674.50;5247037;28;20040;-63
2023/01/21 04:33:06;;;;;;;79.00;35.03;;;;;;;-2.81;100.00;102678.84;5248607;28;20037;-63
2023/01/21 04:35:37;;;;;;;73.85;33.85;;;;;;;-2.77;100.00;102678.00;5246838;28;20021;-63
2023/01/21 04:38:09;;;;;;;74.07;34.53;;;;;;;-2.84;100.00;102667.50;5247630;28;20029;-63
2023/01/21 04:40:40;;;;;;;74.50;33.65;;;;;;;-2.82;100.00;102673.59;5245720;28;20060;-63
2023/01/21 04:43:12;;;;;;;71.57;32.42;;;;;;;-2.85;100.00;102673.59;5246276;28;20608;-63
2023/01/21 04:45:43;;;;;;;76.32;34.60;;;;;;;-2.86;100.00;102671.84;5244884;28;20031;-63
2023/01/21 04:48:15;;;;;;;73.07;32.60;;;;;;;-2.85;100.00;102681.44;5248590;28;20662;-63
2023/01/21 04:50:47;;;;;;;79.80;33.45;;;;;;;-2.88;100.00;102692.72;5246715;28;20112;-63
2023/01/21 04:53:18;;;;;;;76.57;35.13;;;;;;;-2.88;100.00;102694.47;5249313;28;20372;-63
2023/01/21 04:55:50;;;;;;;78.75;33.95;;;;;;;-2.89;100.00;102698.81;5245603;28;20040;-64
2023/01/21 04:58:22;;;;;;;74.90;33.60;;;;;;;-2.93;100.00;102703.97;5245384;28;20017;-63
2023/01/21 05:00:54;;;;;;;73.25;31.98;;;;;;;-2.96;100.00;102697.88;5245879;28;20025;-63
2023/01/21 05:03:26;;;;;;;74.85;32.72;;;;;;;-2.95;100.00;102703.97;5245594;28;20052;-63
2023/01/21 05:05:57;;;;;;;75.55;32.88;;;;;;;-2.92;100.00;102703.13;5247280;28;20033;-63
2023/01/21 05:08:29;;;;;;;76.78;32.70;;;;;;;-2.91;100.00;102710.13;5245809;28;20452;-64
2023/01/21 05:11:00;;;;;;;79.32;32.80;;;;;;;-2.97;100.00;102713.53;5251907;28;20040;-64
2023/01/21 05:13:32;;;;;;;75.55;33.08;;;;;;;-2.98;100.00;102712.63;5248095;28;20032;-63
2023/01/21 05:16:04;;;;;;;77.10;32.72;;;;;;;-3.00;100.00;102719.59;5245587;28;20039;-63
2023/01/21 05:18:36;;;;;;;75.80;33.10;;;;;;;-3.00;100.00;102724.81;5244958;28;20039;-63
2023/01/21 05:21:07;;;;;;;74.60;33.28;;;;;;;-3.04;100.00;102719.56;5244642;28;20439;-63
2023/01/21 05:23:39;;;;;;;82.50;34.30;;;;;;;-3.05;100.00;102726.53;5250024;28;20021;-64
2023/01/21 05:26:10;;;;;;;76.00;33.40;;;;;;;-3.04;100.00;102720.41;5246190;28;20380;-64
2023/01/21 05:28:41;;;;;;;78.45;33.00;;;;;;;-3.06;100.00;102724.75;5245213;28;20033;-63
2023/01/21 05:31:13;;;;;;;84.03;34.35;;;;;;;-3.06;100.00;102729.09;5247950;28;20047;-64
2023/01/21 05:33:45;;;;;;;79.38;33.28;;;;;;;-3.07;100.00;102727.34;5245568;28;20052;-64
2023/01/21 05:36:17;;;;;;;83.07;33.38;;;;;;;-3.09;100.00;102734.28;5248974;28;20483;-64
2023/01/21 05:38:48;;;;;;;77.28;33.47;;;;;;;-3.09;100.00;102736.91;5251707;28;20607;-64
2023/01/21 05:41:20;;;;;;;75.43;33.03;;;;;;;-3.07;100.00;102737.78;5251599;28;21246;-64
2023/01/21 05:43:51;;;;;;;79.03;32.03;;;;;;;-3.10;100.00;102743.00;5251496;28;20029;-64
2023/01/21 05:46:22;;;;;;;75.50;32.67;;;;;;;-3.11;100.00;102747.31;5250867;28;20033;-64
2023/01/21 05:48:54;;;;;;;78.13;33.80;;;;;;;-3.11;100.00;102749.94;5250502;28;20037;-64
2023/01/21 05:51:25;;;;;;;78.50;33.00;;;;;;;-3.13;100.00;102748.16;5249244;28;20025;-64
2023/01/21 05:53:56;;;;;;;76.80;31.42;;;;;;;-3.15;100.00;102746.41;5249695;28;20021;-64
2023/01/21 05:56:28;;;;;;;76.97;33.85;;;;;;;-3.10;100.00;102751.69;5250802;28;20032;-64
2023/01/21 05:58:59;;;;;;;77.75;32.78;;;;;;;-3.15;100.00;102748.16;5248328;28;20021;-64
2023/01/21 06:01:30;;;;;;;74.10;32.35;;;;;;;-3.18;100.00;102754.22;5250385;28;20025;-64
2023/01/21 06:04:02;;;;;;;75.47;33.28;;;;;;;-3.13;100.00;102756.88;5251708;28;20408;-64
2023/01/21 06:06:33;;;;;;;77.30;32.58;;;;;;;-3.17;100.00;102755.97;5248951;28;20383;-63
2023/01/21 06:09:04;;;;;;;75.60;32.22;;;;;;;-3.17;100.00;102758.56;5250006;28;20048;-64
2023/01/21 06:11:35;;;;;;;79.07;33.95;;;;;;;-3.18;100.00;102763.78;5253188;28;20028;-64
2023/01/21 06:14:07;;;;;;;81.10;32.80;;;;;;;-3.20;100.00;102768.13;5246992;28;20436;-64
2023/01/21 06:16:38;;;;;;;78.90;32.83;;;;;;;-3.20;100.00;102770.75;5251634;28;20037;-64
2023/01/21 06:19:09;;;;;;;74.45;31.67;;;;;;;-3.17;100.00;102770.75;5252728;28;20179;-64
2023/01/21 06:21:41;;;;;;;77.57;32.90;;;;;;;-3.21;100.00;102779.41;5252845;28;20538;-64
2023/01/21 06:24:12;;;;;;;75.85;32.97;;;;;;;-3.21;100.00;102779.41;5255903;28;20537;-64
2023/01/21 06:26:43;;;;;;;80.88;33.88;;;;;;;-3.23;100.00;102778.53;5254058;28;20033;-64
2023/01/21 06:29:14;;;;;;;82.57;33.90;;;;;;;-3.16;100.00;102785.56;5253455;28;20028;-64
2023/01/21 06:31:46;;;;;;;79.47;33.45;;;;;;;-3.20;100.00;102787.28;5257386;28;20079;-64
2023/01/21 06:34:17;;;;;;;81.18;34.88;;;;;;;-3.24;100.00;102790.69;5249205;28;20029;-64
2023/01/21 06:36:48;;;;;;;78.20;34.42;;;;;;;-3.19;100.00;102799.44;5252124;28;20032;-64
2023/01/21 06:39:19;;;;;;;73.95;32.83;;;;;;;-3.15;100.00;102805.59;5254775;28;20025;-64
2023/01/21 06:41:51;;;;;;;73.90;32.97;;;;;;;-3.22;100.00;102802.03;5257365;28;20017;-64
2023/01/21 06:44:22;;;;;;;80.20;33.47;;;;;;;-3.22;100.00;102803.75;5257477;28;20500;-64
2023/01/21 06:46:53;;;;;;;78.60;33.70;;;;;;;-3.18;100.00;102803.81;5261556;28;20431;-64
2023/01/21 06:49:25;;;;;;;80.72;33.25;;;;;;;-3.08;100.00;102819.59;5252989;28;20021;-64
2023/01/21 06:51:56;;;;;;;78.53;33.95;;;;;;;-3.18;100.00;102816.88;5253845;28;20132;-64
2023/01/21 06:54:27;;;;;;;75.63;33.33;;;;;;;-3.24;100.00;102818.50;5246802;28;20044;-64
2023/01/21 06:56:58;;;;;;;81.78;34.60;;;;;;;-3.26;100.00;102815.91;5252144;28;20044;-64
2023/01/21 06:59:30;;;;;;;81.47;33.38;;;;;;;-3.22;100.00;102819.41;5248747;28;20036;-64
2023/01/21 07:02:01;;;;;;;79.32;33.58;;;;;;;-3.26;100.00;102828.97;5248645;28;20383;-64
2023/01/21 07:04:32;;;;;;;79.10;33.00;;;;;;;-3.24;100.00;102831.56;5252131;28;20029;-64
2023/01/21 07:07:04;;;;;;;85.15;35.85;;;;;;;-3.23;100.00;102830.72;5249484;28;20662;-64
2023/01/21 07:09:35;;;;;;;85.07;35.72;;;;;;;-3.28;100.00;102837.59;5251612;28;20471;-64
2023/01/21 07:12:06;;;;;;;82.53;34.35;;;;;;;-3.25;100.00;102837.66;5256170;28;20487;-64
2023/01/21 07:14:38;;;;;;;78.80;33.75;;;;;;;-3.29;100.00;102844.56;5255874;28;20407;-64
2023/01/21 07:17:09;;;;;;;77.97;33.22;;;;;;;-3.34;100.00;102843.63;5252432;28;20032;-64
2023/01/21 07:19:41;;;;;;;78.93;32.03;;;;;;;-3.36;100.00;102850.56;5252348;28;20570;-64
2023/01/21 07:22:12;;;;;;;80.47;34.97;;;;;;;-3.35;100.00;102853.19;5262537;28;20058;-64
2023/01/21 07:24:43;;;;;;;82.55;33.97;;;;;;;-3.35;100.00;102853.19;5258740;28;20036;-64
2023/01/21 07:27:15;;;;;;;75.95;32.67;;;;;;;-3.31;100.00;102866.31;5256753;28;20025;-64
2023/01/21 07:29:46;;;;;;;81.72;34.35;;;;;;;-3.31;100.00;102864.56;5257117;28;20028;-64
2023/01/21 07:32:17;;;;;;;82.88;34.22;;;;;;;-3.37;100.00;102872.31;5260234;28;20032;-64
2023/01/21 07:34:49;;;;;;;83.20;33.95;;;;;;;-3.38;100.00;102876.63;5258623;28;20028;-64
2023/01/21 07:37:20;;;;;;;80.10;33.60;;;;;;;-3.39;100.00;102880.13;5255367;28;20017;-64
2023/01/21 07:39:51;;;;;;;78.55;32.65;;;;;;;-3.35;100.00;102881.91;5253303;28;20025;-64
2023/01/21 07:42:22;;;;;;;86.22;34.60;;;;;;;-3.30;100.00;102888.91;5254747;28;20060;-65
2023/01/21 07:44:54;;;;;;;75.57;32.67;;;;;;;-3.41;100.00;102887.03;5258745;28;20028;-64
2023/01/21 07:47:26;;;;;;;84.30;35.03;;;;;;;-3.41;100.00;102896.63;5252586;28;20036;-64
2023/01/21 07:49:57;;;;;;;91.25;36.42;;;;;;;-3.42;100.00;102897.47;5255690;28;20029;-64
2023/01/21 07:52:28;;;;;;;84.85;35.65;;;;;;;-3.36;100.00;102905.38;5252332;28;20025;-64
2023/01/21 07:55:00;;;;;;;85.20;35.50;;;;;;;-3.44;100.00;102907.88;5248794;28;20020;-65
2023/01/21 07:57:32;;;;;;;86.68;36.25;;;;;;;-3.46;100.00;102912.19;5262710;28;20064;-64
2023/01/21 08:00:04;;;;;;;86.70;35.72;;;;;;;-3.46;100.00;102920.00;5269505;28;20052;-64
2023/01/21 08:02:35;;;;;;;90.53;34.23;;;;;;;-3.46;100.00;102919.16;5250611;28;20037;-64
2023/01/21 08:05:07;;;;;;;87.20;35.75;;;;;;;-3.43;100.00;102924.38;5250339;28;20051;-64
2023/01/21 08:07:38;;;;;;;88.90;34.70;;;;;;;-3.41;100.00;102928.81;5255844;28;20056;-64
2023/01/21 08:10:09;;;;;;;89.75;34.15;;;;;;;-3.39;100.00;102936.66;5253931;28;20418;-64
2023/01/21 08:12:41;;;;;;;85.70;36.67;;;;;;;-3.36;100.00;102952.34;5255423;28;20107;-64
2023/01/21 08:15:13;;;;;;;88.05;34.20;;;;;;;-3.36;100.00;102954.97;5252600;28;20402;-64
2023/01/21 08:17:46;;;;;;;96.15;37.50;;;;;;;-3.31;100.00;102957.66;5252370;28;20025;-65
2023/01/21 08:20:17;;;;;;;102.78;38.17;;;;;;;-3.29;100.00;102954.19;5254230;28;20025;-65
2023/01/21 08:22:48;;;;;;;105.22;38.50;;;;;;;-3.26;100.00;102958.59;5253795;28;20059;-64
2023/01/21 08:25:20;;;;;;;108.80;40.65;;;;;;;-3.22;100.00;102963.88;5245136;28;20078;-64
2023/01/21 08:27:51;;;;;;;104.07;39.15;;;;;;;-3.17;100.00;102975.25;5248318;28;20029;-64
2023/01/21 08:30:22;;;;;;;114.55;40.55;;;;;;;-3.14;100.00;102974.44;5254121;28;20036;-64
2023/01/21 08:32:54;;;;;;;114.38;41.65;;;;;;;-3.10;100.00;102980.59;5246381;28;20028;-64
2023/01/21 08:35:25;;;;;;;118.10;42.38;;;;;;;-3.00;100.00;102982.47;5253779;28;20028;-64
2023/01/21 08:37:56;;;;;;;116.65;42.08;;;;;;;-2.96;100.00;102973.81;5253867;28;20040;-64
2023/01/21 08:40:28;;;;;;;123.88;42.80;;;;;;;-2.97;100.00;102990.38;5249394;28;20028;-64
2023/01/21 08:43:01;;;;;;;115.13;42.63;;;;;;;-2.87;100.00;102994.84;5256451;28;20114;-64
2023/01/21 08:45:32;;;;;;;97.07;34.17;;;;;;;-2.84;100.00;102991.41;5250708;28;20024;-63
2023/01/21 08:48:04;;;;;;;123.45;43.90;;;;;;;-2.83;100.00;102996.66;5259701;28;20021;-64
2023/01/21 08:50:35;;;;;;;119.65;42.58;;;;;;;-2.81;100.00;102996.66;5255700;28;20036;-64
2023/01/21 08:53:09;;;;;;;120.40;43.83;;;;;;;-2.77;100.00;103003.69;5251532;28;20184;-64
2023/01/21 08:55:40;;;;;;;121.85;43.47;;;;;;;-2.71;100.00;103005.50;5244603;28;20482;-63
2023/01/21 08:58:11;;;;;;;123.03;43.75;;;;;;;-2.68;100.00;103011.66;5247274;28;20045;-64
2023/01/21 09:00:43;;;;;;;124.90;45.90;;;;;;;-2.61;100.00;103012.59;5246409;28;20036;-64
2023/01/21 09:03:16;;;;;;;124.35;45.17;;;;;;;-2.63;100.00;103015.22;5253281;28;20021;-64
2023/01/21 09:05:50;;;;;;;122.47;43.83;;;;;;;-2.56;100.00;103016.16;5241625;28;20036;-64
2023/01/21 09:08:21;;;;;;;130.35;44.15;;;;;;;-2.53;100.00;103025.78;5252562;28;20076;-64
2023/01/21 09:11:00;;;;;;;131.82;45.60;;;;;;;-2.43;100.00;103025.94;5250050;28;20029;-63
2023/01/21 09:13:34;;;;;;;119.78;43.13;;;;;;;-2.43;100.00;103020.69;5254256;28;20048;-64
2023/01/21 09:16:11;;;;;;;117.47;41.70;;;;;;;-2.35;100.00;103028.63;5247521;28;20087;-62
2023/01/21 09:18:42;;;;;;;124.75;43.33;;;;;;;-2.37;100.00;103020.75;5252130;28;20036;-62
2023/01/21 09:21:14;;;;;;;119.82;40.47;;;;;;;-2.35;100.00;103025.16;5255419;28;20648;-62
2023/01/21 09:23:46;;;;;;;125.18;41.72;;;;;;;-2.30;100.00;103028.69;5254340;28;20036;-62
2023/01/21 09:26:19;;;;;;;125.25;40.35;;;;;;;-2.30;100.00;103019.13;5256993;28;20395;-62
2023/01/21 09:28:53;;;;;;;120.70;41.28;;;;;;;-2.19;100.00;103017.50;5253473;28;20104;-63
2023/01/21 09:31:27;;;;;;;118.40;40.85;;;;;;;-2.12;100.00;103028.91;5259226;28;20032;-62
2023/01/21 09:34:02;;;;;;;117.57;40.00;;;;;;;-2.12;100.00;103030.66;5251803;28;20040;-62
2023/01/21 09:36:34;;;;;;;123.15;42.78;;;;;;;-2.11;100.00;103035.91;5253580;28;20064;-62
2023/01/21 09:39:06;;;;;;;119.82;41.08;;;;;;;-2.12;100.00;103044.59;5254851;28;20155;-63
2023/01/21 09:41:44;;;;;;;117.05;40.92;;;;;;;-2.10;100.00;103037.66;5255389;28;20032;-62
2023/01/21 09:44:35;;;;;;;115.55;40.83;;;;;;;-2.08;100.00;103053.38;5254179;28;20037;-62
2023/01/21 09:47:18;;;;;;;111.80;38.65;;;;;;;-2.06;100.00;103052.50;5257416;28;20051;-62
2023/01/21 09:49:49;;;;;;;122.10;40.40;;;;;;;-1.99;100.00;103061.31;5258736;28;20033;-63
2023/01/21 09:52:36;;;;;;;119.10;40.35;;;;;;;-1.96;100.00;103066.56;5263332;28;20467;-62
2023/01/21 09:55:17;;;;;;;114.72;39.13;;;;;;;-1.92;100.00;103073.59;5260112;28;20662;-63
2023/01/21 09:58:01;;;;;;;116.90;39.10;;;;;;;-1.93;100.00;103078.84;5259664;28;20033;-63
2023/01/21 10:00:32;;;;;;;104.82;36.92;;;;;;;-1.87;100.00;103076.28;5267585;28;20383;-63
2023/01/21 10:03:20;;;;;;;112.53;37.95;;;;;;;-1.84;100.00;103084.16;5256410;28;20052;-63
2023/01/21 10:05:51;;;;;;;116.50;39.15;;;;;;;-1.85;100.00;103085.88;5253268;28;20623;-63
2023/01/21 10:08:50;;;;;;;111.55;38.55;;;;;;;-1.82;100.00;103088.56;5254280;28;20652;-62
2023/01/21 10:11:52;;;;;;;117.93;39.13;;;;;;;-1.82;100.00;103093.78;5250928;28;20032;-63
2023/01/21 10:15:00;;;;;;;110.57;38.17;;;;;;;-1.82;100.00;103099.03;5252824;28;20062;-63
2023/01/21 10:17:53;;;;;;;106.32;35.80;;;;;;;-1.82;100.00;103100.78;5255122;28;20083;-62
2023/01/21 10:20:32;;;;;;;109.18;37.30;;;;;;;-1.86;100.00;103109.41;5253423;28;20221;-63
2023/01/21 10:23:25;;;;;;;106.93;37.75;;;;;;;-1.84;100.00;103099.84;5256251;28;20052;-63
2023/01/21 10:26:00;;;;;;;110.50;37.95;;;;;;;-1.81;100.00;103111.22;5251973;28;20087;-64
2023/01/21 10:28:32;;;;;;;116.65;39.83;;;;;;;-1.80;100.00;103107.75;5255672;28;20634;-64
2023/01/21 10:31:10;;;;;;;114.45;38.35;;;;;;;-1.73;100.00;103113.06;5246110;28;20137;-64
2023/01/21 10:33:41;;;;;;;123.65;41.80;;;;;;;-1.73;100.00;103111.31;5257212;28;20529;-63
2023/01/21 10:36:42;;;;;;;116.70;38.38;;;;;;;-1.73;100.00;103110.44;5256579;28;20056;-63
2023/01/21 10:39:27;;;;;;;112.72;38.45;;;;;;;-1.66;100.00;103114.88;5252969;28;20648;-64
2023/01/21 10:42:21;;;;;;;116.57;38.78;;;;;;;-1.66;100.00;103094.81;5249465;28;20033;-64
2023/01/21 10:45:07;;;;;;;115.18;38.80;;;;;;;-1.63;100.00;103094.88;5251793;28;20076;-64
2023/01/21 10:47:46;;;;;;;121.55;40.33;;;;;;;-1.56;100.00;103095.78;5247529;28;20444;-64
2023/01/21 10:50:42;;;;;;;112.70;39.55;;;;;;;-1.49;100.00;103096.75;5252882;28;20573;-63
2023/01/21 10:53:32;;;;;;;116.38;37.78;;;;;;;-1.41;100.00;103095.09;5253105;28;20033;-64
2023/01/21 10:56:32;;;;;;;118.50;39.30;;;;;;;-1.38;100.00;103088.13;5253961;28;20068;-63
2023/01/21 10:59:21;;;;;;;119.20;40.85;;;;;;;-1.33;100.00;103082.06;5232222;28;20044;-64
2023/01/21 11:02:38;;;;;;;109.38;38.60;;;;;;;-1.29;100.00;103078.59;5252952;28;20567;-64
2023/01/21 11:05:13;;;;;;;109.45;38.05;;;;;;;-1.30;100.00;103082.09;5188339;28;20038;-64
2023/01/21 11:07:46;;;;;;;115.85;38.15;;;;;;;-1.32;100.00;103089.94;5184855;28;20077;-63
2023/01/21 11:10:22;;;;;;;110.40;36.75;;;;;;;-1.33;100.00;103085.53;5227487;28;20040;-63
2023/01/21 11:12:54;;;;;;;106.95;38.58;;;;;;;-1.32;100.00;103078.56;5250556;28;20099;-64
2023/01/21 11:15:31;;;;;;;108.25;37.67;;;;;;;-1.28;100.00;103078.63;5249889;28;20037;-64
2023/01/21 11:18:25;;;;;;;104.55;37.88;;;;;;;-1.27;100.00;103082.97;5255154;28;20037;-64
2023/01/21 11:21:00;;;;;;;110.18;38.83;;;;;;;-1.33;100.00;103082.06;5252697;28;20041;-64
2023/01/21 11:23:38;;;;;;;111.85;39.55;;;;;;;-1.29;100.00;103083.84;5252740;28;20542;-66
2023/01/21 11:26:23;;;;;;;107.72;39.47;;;;;;;-1.27;100.00;103080.34;5252620;28;20635;-64
2023/01/21 11:29:05;;;;;;;102.45;37.80;;;;;;;-1.26;100.00;103081.25;5246505;28;20069;-64
2023/01/21 11:31:37;;;;;;;104.90;38.10;;;;;;;-1.25;100.00;103089.09;5252152;28;20064;-64
2023/01/21 11:34:20;;;;;;;105.68;39.20;;;;;;;-1.27;100.00;103084.72;5251155;28;20174;-64
2023/01/21 11:37:05;;;;;;;100.78;37.70;;;;;;;-1.26;100.00;103089.13;5253587;28;20021;-64
2023/01/21 11:39:46;;;;;;;92.03;35.00;;;;;;;-1.22;100.00;103076.06;5242306;28;20031;-64
2023/01/21 11:42:18;;;;;;;93.22;36.90;;;;;;;-1.24;100.00;103074.28;5243240;28;20025;-64